Tiempo atmosférico en la estación meteorológica de Cabo de Gata, Almería (42 m.)

Fecha
DESCASC
Temp. máxima en grados centígrados (hora)
DESCASC
Temp. mínima en grados centígrados (hora)
DESCASC
Temp. media en grados centígrados
DESCASC
Racha de viento máxima en m/sg (hora)
DESCASC
Velocidad máxima media en intervalos de 10 minutos(hora)
DESCASC
Precipitaciones diarias en mm
DESCASC
Precipitaciones de 00:00 a 06:00 en mm
DESCASC
Precipitaciones de 06:00 a 12:00 en mm
DESCASC
Precipitaciones de 12:00 a 18:00 en mm
DESCASC
Precipitaciones de 18:00 a 24:00 en mm
DESCASC
17-08-2017 27.7 (14:20) 25.1 (03:30) 26.4 15.56 (16:40) 11.67 (16:10) 0 0 0 0 0
16-08-2017 29.6 (16:20) 25 (07:40) 27.3 5.28 (10:40) 3.33 (11:00) 0 0 0 0 0
15-08-2017 28.7 (12:10) 24.9 (00:00) 26.8 18.61 (12:40) 12.78 (13:50) 0 0 0 0 0
14-08-2017 28.6 (14:00) 24.7 (07:40) 26.7 23.61 (20:40) 14.72 (19:50) 0 0 0 0 0
13-08-2017 28.1 (13:50) 23.6 (00:00) 25.9 22.22 (19:00) 14.17 (18:20) 0 0 0 0 0
12-08-2017 27.6 (13:40) 23.1 (00:00) 25.4 20.56 (13:20) 13.61 (17:00) 0 0 0 0 0
11-08-2017 27 (14:40) 23.9 (00:00) 25.4 16.67 (15:20) 11.67 (20:40) 0 0 0 0 0
10-08-2017 26.1 (14:00) 23.8 (00:00) 24.9 21.11 (09:00) 13.61 (16:00) 0 0 0 0 0
09-08-2017 29.8 (12:50) 25.6 (00:00) 27.7 14.72 (01:50) 10.28 (01:10) 0 0 0 0 0
08-08-2017 29.5 (16:50) 26.6 (00:00) 28.1 11.67 (08:10) 8.33 (07:50) 0 0 0 0 0
07-08-2017 30.8 (16:10) 27 (00:00) 28.9 10 (09:30) 7.22 (09:30) 0 0 0 0 0
06-08-2017 30.3 (11:30) 26 (00:00) 28.1 18.33 (16:40) 11.67 (16:00) 0 0 0 0 0
05-08-2017 31.7 (11:20) 26.9 (00:00) 29.3 10.83 (16:40) 7.5 (16:20) 0 0 0 0 0
04-08-2017 31.9 (14:30) 25.1 (00:00) 28.5 6.11 (01:40) 3.89 (01:20) 0 0 0 0 0
03-08-2017 31.1 (14:20) 25.3 (00:00) 28.2 8.06 (20:40) 5 (19:50) 0 0 0 0 0
02-08-2017 31 (16:00) 25.9 (00:00) 28.4 14.72 (00:40) 10.28 (00:40) 0 0 0 0 0
01-08-2017 29.6 (14:10) 24.8 (00:00) 27.2 16.94 (23:10) 10.56 (23:10) 0 0 0 0 0
31-07-2017 30.9 (12:40) 25.6 (00:00) 28.3 10 (04:10) 7.5 (04:10) 0 0 0 0 0
30-07-2017 31.8 (15:40) 24.6 (00:00) 28.2 9.17 (08:40) 5.28 (00:20) 0 0 0 0 0
29-07-2017 29.3 (16:10) 24.2 (00:00) 26.8 12.22 (12:40) 9.17 (12:40) 0 0 0 0 0
28-07-2017 30.4 (14:00) 24.4 (00:00) 27.4 8.61 (20:40) 6.67 (09:20) 0 0 0 0 0
27-07-2017 29.1 (15:40) 24.1 (00:00) 26.6 8.61 (11:00) 6.94 (11:10) 0 0 0 0 0
26-07-2017 30.2 (15:00) 24.5 (00:00) 27.4 8.61 (11:00) 6.94 (10:50) 0 0 0 0 0
25-07-2017 27.9 (13:10) 23.8 (00:00) 25.8 18.06 (11:50) 12.5 (15:10) 0 0 0 0 0
24-07-2017 29 (13:20) 22.1 (00:00) 25.6 10.28 (22:30) 8.06 (22:20) 0 0 0 0 0
23-07-2017 28.1 (11:40) 23.7 (00:00) 25.9 13.33 (00:10) 10 (00:20) 0 0 0 0 0
22-07-2017 28 (14:50) 21.6 (00:00) 24.8 12.78 (23:50) 8.61 (23:50) 0 0 0 0 0

Gráficas

Temp. máximas Temp. mínimas Temp. medias Precipitaciones Rachas de viento máximas Velocidades máximas media en intervalos de 10 minutos

Datos horarios

Fecha y hora oficial Temperatura (ºC) Velocidad del viento (km/h) Dirección del viento Racha (km/h) Dirección de racha Precipitación (mm) Presión (hPa) Tendencia (hPa) Humedad (%)
2017-08-20 23:00:00 25.6 33 Nordeste 56 Nordeste 0 -- -- 76
2017-08-20 22:00:00 25.8 38 Nordeste 59 Nordeste 0 -- -- 76
2017-08-20 21:00:00 26 40 Nordeste 69 Nordeste 0 -- -- 76
2017-08-20 20:00:00 26.4 49 Nordeste 72 Nordeste 0 -- -- 74
2017-08-20 19:00:00 27 48 Nordeste 68 Este 0 -- -- 71
2017-08-20 18:00:00 27.3 53 Nordeste 73 Nordeste 0 -- -- 70
2017-08-20 17:00:00 28 45 Nordeste 69 Este 0 -- -- 68
2017-08-20 16:00:00 28.6 46 Nordeste 68 Nordeste 0 -- -- 66
2017-08-20 15:00:00 28.9 45 Nordeste 74 Este 0 -- -- 66
2017-08-20 14:00:00 28.7 48 Nordeste 76 Nordeste 0 -- -- 65
2017-08-20 13:00:00 28.4 52 Nordeste 76 Nordeste 0 -- -- 67
2017-08-20 12:00:00 28.8 36 Nordeste 59 Nordeste 0 -- -- 65
2017-08-20 11:00:00 28.4 24 Nordeste 51 Nordeste 0 -- -- 66
2017-08-20 10:00:00 27.5 21 Nordeste 53 Este 0 -- -- 69
2017-08-20 09:00:00 26.5 12 Nordeste 35 Nordeste 0 -- -- 73
2017-08-20 08:00:00 25.5 8 Norte 26 Nordeste 0 -- -- 73
2017-08-20 07:00:00 25.4 7 Norte 24 Este 0 -- -- 74
2017-08-20 06:00:00 25.5 9 Norte 21 Este 0 -- -- 76
2017-08-20 05:00:00 25.7 7 Nordeste 28 Nordeste 0 -- -- 75
2017-08-20 04:00:00 25.9 5 Nordeste 31 Nordeste 0 -- -- 76
2017-08-20 03:00:00 26 13 Norte 47 Nordeste 0 -- -- 78
2017-08-20 02:00:00 26.2 31 Nordeste 53 Nordeste 0 -- -- 78
2017-08-20 01:00:00 26.2 31 Nordeste 53 Nordeste 0 -- -- 77
2017-08-20 00:00:00 26.4 32 Nordeste 54 Este 0 -- -- 74
2017-08-19 23:00:00 26.6 39 Nordeste 59 Nordeste 0 -- -- 73
2017-08-19 22:00:00 26.5 33 Nordeste 54 Nordeste 0 -- -- 75
2017-08-19 21:00:00 26.9 35 Nordeste 76 Este 0 -- -- 74
2017-08-19 20:00:00 27.5 42 Nordeste 54 Este 0 -- -- 68
2017-08-19 19:00:00 28 35 Este 53 Este 0 -- -- 71
2017-08-19 18:00:00 28.7 38 Nordeste 54 Nordeste 0 -- -- 68
2017-08-19 17:00:00 28.7 34 Este 55 Nordeste 0 -- -- 67
2017-08-19 16:00:00 28.8 36 Este 57 Nordeste 0 -- -- 68
2017-08-19 15:00:00 28 36 Este 57 Nordeste 0 -- -- 70
2017-08-19 14:00:00 28.3 37 Este 62 Este 0 -- -- 70
2017-08-19 13:00:00 28.1 30 Este 51 Este 0 -- -- 71
2017-08-19 12:00:00 27.3 36 Este 55 Este 0 -- -- 74
2017-08-19 11:00:00 26.8 19 Este 42 Este 0 -- -- 79
2017-08-19 10:00:00 25.4 22 Este 44 Este 0 -- -- 85
2017-08-19 09:00:00 24.8 10 Este 23 Este 0 -- -- 86
2017-08-19 08:00:00 24.7 5 Norte 13 Nordeste 0 -- -- 86
2017-08-19 07:00:00 24.9 5 Nordeste 8 Norte 0 -- -- 86
2017-08-19 06:00:00 25.1 4 Sudeste 8 Sudeste 0 -- -- 85
2017-08-19 05:00:00 25.2 2 Sur 8 Este 0 -- -- 85
2017-08-19 04:00:00 24.9 7 Este 12 Este 0 -- -- 84
2017-08-19 03:00:00 25.1 6 Norte 13 Norte 0 -- -- 84
2017-08-19 02:00:00 24.9 7 Noroeste 10 Norte 0 -- -- 84
2017-08-19 01:00:00 25.4 5 Noroeste 13 Oeste 0 -- -- 84
2017-08-19 00:00:00 25.8 6 Oeste 12 Oeste 0 -- -- 83
2017-08-18 23:00:00 25.9 7 Oeste 10 Oeste 0 -- -- 82
2017-08-18 22:00:00 26 3 Oeste 8 Sudoeste 0 -- -- 82
2017-08-18 21:00:00 26.1 2 Sudoeste 6 Sudeste 0 -- -- 81
2017-08-18 20:00:00 26.4 3 Sudeste 8 Sudeste 0 -- -- 80
2017-08-18 19:00:00 26.8 5 Sudeste 14 Este 0 -- -- 79
2017-08-18 18:00:00 27.1 8 Este 35 Este 0 -- -- 79
2017-08-18 17:00:00 26.6 31 Este 44 Este 0 -- -- 79
2017-08-18 16:00:00 26.8 37 Este 47 Este 0 -- -- 79
2017-08-18 15:00:00 27 38 Este 45 Este 0 -- -- 78
2017-08-18 14:00:00 27.2 36 Este 45 Este 0 -- -- 77
2017-08-18 13:00:00 27.1 35 Este 46 Este 0 -- -- 76
2017-08-18 12:00:00 27 33 Este 44 Este 0 -- -- 76
2017-08-18 11:00:00 26.7 28 Este 34 Este 0 -- -- 79
2017-08-18 10:00:00 26.1 20 Este 28 Este 0 -- -- 82
2017-08-18 09:00:00 25.7 12 Nordeste 26 Este 0 -- -- 84
2017-08-18 08:00:00 25.4 13 Este 22 Este 0 -- -- 85
2017-08-18 07:00:00 25.3 8 Nordeste 20 Este 0 -- -- 84
2017-08-18 06:00:00 25.3 7 Nordeste 12 Nordeste 0 -- -- 84
2017-08-18 05:00:00 25.4 8 Nordeste 10 Nordeste 0 -- -- 83
2017-08-18 04:00:00 25.5 5 Nordeste 14 Nordeste 0 -- -- 83
2017-08-18 03:00:00 25.8 7 Nordeste 15 Nordeste 0 -- -- 82
2017-08-18 02:00:00 25.9 5 Nordeste 14 Este 0 -- -- 82
2017-08-18 01:00:00 26.3 9 Este 19 Este 0 -- -- 79
2017-08-18 00:00:00 26.7 6 Nordeste 13 Este 0 -- -- 71
2017-08-17 23:00:00 26.6 6 Noroeste 20 Nordeste 0 -- -- 72
2017-08-17 22:00:00 26.6 7 Este 22 Este 0 -- -- 75
2017-08-17 21:00:00 27.1 12 Este 29 Este 0 -- -- 74
2017-08-17 20:00:00 27.4 13 Este 35 Sudeste 0 -- -- 73
2017-08-17 19:00:00 27.1 27 Este 45 Este 0 -- -- 77
2017-08-17 18:00:00 26.7 34 Este 52 Este 0 -- -- 81
2017-08-17 17:00:00 27 32 Este 56 Este 0 -- -- 80
2017-08-17 16:00:00 27.1 41 Este 51 Este 0 -- -- 79
2017-08-17 15:00:00 27.5 37 Este 46 Este 0 -- -- 77
2017-08-17 14:00:00 27.6 36 Este 45 Este 0 -- -- 76
2017-08-17 13:00:00 27.1 35 Este 48 Este 0 -- -- 76
2017-08-17 12:00:00 27.3 34 Este 46 Este 0 -- -- 76
2017-08-17 11:00:00 27.4 34 Este 43 Este 0 -- -- 76
2017-08-17 10:00:00 27.2 16 Este 27 Este 0 -- -- 81
2017-08-17 09:00:00 26 10 Nordeste 23 Este 0 -- -- 83
2017-08-17 08:00:00 25.5 7 Este 16 Este 0 -- -- 83
2017-08-17 07:00:00 25.4 12 Este 22 Este 0 -- -- 83
2017-08-17 06:00:00 25.5 7 Este 12 Nordeste 0 -- -- 82
2017-08-17 05:00:00 25.3 5 Nordeste 10 Este 0 -- -- 82
2017-08-17 04:00:00 25.2 5 Norte 9 Norte 0 -- -- 82
2017-08-17 03:00:00 25.5 4 Noroeste 7 Noroeste 0 -- -- 81
2017-08-17 02:00:00 25.6 4 Norte 15 Noroeste 0 -- -- 80
2017-08-17 01:00:00 26.3 9 Oeste 16 Oeste 0 -- -- 78
2017-08-17 00:00:00 26.5 9 Oeste 13 Oeste 0 -- -- 76
2017-08-16 23:00:00 26.8 6 Oeste 11 Oeste 0 -- -- 76
2017-08-16 22:00:00 27 9 Oeste 13 Oeste 0 -- -- 75
2017-08-16 21:00:00 27.4 7 Oeste 11 Oeste 0 -- -- 73
2017-08-16 20:00:00 28.1 7 Oeste 14 Oeste 0 -- -- 72
2017-08-16 19:00:00 28.2 6 Oeste 13 Sudoeste 0 -- -- 72
2017-08-16 18:00:00 28.9 6 Oeste 17 Oeste 0 -- -- 70
2017-08-16 17:00:00 29.5 6 Oeste 15 Oeste 0 -- -- 69
2017-08-16 16:00:00 29.4 5 Oeste 13 Sudoeste 0 -- -- 70
2017-08-16 15:00:00 29.4 5 Sudoeste 11 Sudoeste 0 -- -- 71
2017-08-16 14:00:00 28.5 5 Sur 12 Sur 0 -- -- 73
2017-08-16 13:00:00 28.8 4 Sur 11 Sudoeste 0 -- -- 72
2017-08-16 12:00:00 29 4 Oeste 18 Sudoeste 0 -- -- 73
2017-08-16 11:00:00 27.9 12 Oeste 19 Oeste 0 -- -- 80
2017-08-16 10:00:00 25.8 7 Oeste 15 Oeste 0 -- -- 84
2017-08-16 09:00:00 25.3 5 Oeste 14 Sudoeste 0 -- -- 85
2017-08-16 08:00:00 25.1 4 Sudeste 12 Sur 0 -- -- 85
2017-08-16 07:00:00 25.3 5 Sur 12 Sur 0 -- -- 84
2017-08-16 06:00:00 25.6 3 Sur 12 Oeste 0 -- -- 83
2017-08-16 05:00:00 25.8 7 Sudoeste 15 Oeste 0 -- -- 83
2017-08-16 04:00:00 25.7 9 Oeste 15 Oeste 0 -- -- 82
2017-08-16 03:00:00 25.8 8 Oeste 12 Oeste 0 -- -- 82
2017-08-16 02:00:00 25.9 2 Sudoeste 18 Noroeste 0 -- -- 82
2017-08-16 01:00:00 25.9 8 Oeste 17 Oeste 0 -- -- 82
2017-08-16 00:00:00 26.3 9 Oeste 15 Oeste 0 -- -- 84
2017-08-15 23:00:00 26.4 2 Sur 21 Este 0 -- -- 84
2017-08-15 22:00:00 26.4 17 Este 23 Este 0 -- -- 83
2017-08-15 21:00:00 27 3 Este 17 Este 0 -- -- 81
2017-08-15 20:00:00 26.9 13 Este 29 Este 0 -- -- 81
2017-08-15 19:00:00 27 19 Este 36 Este 0 -- -- 80
2017-08-15 18:00:00 26.9 25 Este 45 Sudeste 0 -- -- 79
2017-08-15 17:00:00 27.1 37 Este 58 Este 0 -- -- 77
2017-08-15 16:00:00 28.1 35 Este 54 Este 0 -- -- 72
2017-08-15 15:00:00 27.9 42 Este 58 Este 0 -- -- 72
2017-08-15 14:00:00 27.4 43 Este 58 Este 0 -- -- 73
2017-08-15 13:00:00 28.1 35 Este 67 Este 0 -- -- 68
2017-08-15 12:00:00 28.5 32 Este 59 Nordeste 0 -- -- 66
2017-08-15 11:00:00 27.6 35 Este 47 Este 0 -- -- 71
2017-08-15 10:00:00 27.1 6 Noroeste 26 Noroeste 0 -- -- 74
2017-08-15 09:00:00 25.7 15 Noroeste 26 Norte 0 -- -- 76
2017-08-15 08:00:00 25.4 8 Noroeste 15 Norte 0 -- -- 72
2017-08-15 07:00:00 24.9 6 Norte 12 Norte 0 -- -- 65
2017-08-15 06:00:00 25.2 3 Norte 13 Este 0 -- -- 63
2017-08-15 05:00:00 25.5 9 Este 17 Este 0 -- -- 64
2017-08-15 04:00:00 26 5 Este 24 Este 0 -- -- 61
2017-08-15 03:00:00 25.6 10 Nordeste 24 Norte 0 -- -- 68
2017-08-15 02:00:00 25.7 12 Nordeste 40 Noroeste 0 -- -- 69
2017-08-15 01:00:00 25.6 20 Nordeste 47 Este 0 -- -- 69
2017-08-15 00:00:00 25.8 8 Norte 60 Nordeste 0 -- -- 69
2017-08-14 23:00:00 25.8 37 Nordeste 71 Nordeste 0 -- -- 67
2017-08-14 22:00:00 26 47 Nordeste 75 Este 0 -- -- 62
2017-08-14 21:00:00 26.1 44 Nordeste 85 Nordeste 0 -- -- 65
2017-08-14 20:00:00 26.6 48 Nordeste 71 Nordeste 0 -- -- 64
2017-08-14 19:00:00 27.1 47 Nordeste 65 Nordeste 0 -- -- 63
2017-08-14 18:00:00 27.5 41 Nordeste 74 Nordeste 0 -- -- 63
2017-08-14 17:00:00 27.7 47 Nordeste 71 Nordeste 0 -- -- 62
2017-08-14 16:00:00 28.3 45 Nordeste 72 Este 0 -- -- 57
2017-08-14 15:00:00 28.4 44 Nordeste 73 Nordeste 0 -- -- 56
2017-08-14 14:00:00 28.6 38 Nordeste 69 Nordeste 0 -- -- 53
2017-08-14 13:00:00 27.8 39 Nordeste 70 Nordeste 0 -- -- 59
2017-08-14 12:00:00 27.6 23 Nordeste 59 Nordeste 0 -- -- 60
2017-08-14 11:00:00 26.9 27 Nordeste 61 Nordeste 0 -- -- 62
2017-08-14 10:00:00 26.1 27 Nordeste 56 Este 0 -- -- 64
2017-08-14 09:00:00 25.4 20 Nordeste 51 Nordeste 0 -- -- 63
2017-08-14 08:00:00 24.7 8 Nordeste 41 Nordeste 0 -- -- 61
2017-08-14 07:00:00 24.9 16 Nordeste 33 Nordeste 0 -- -- 60
2017-08-14 06:00:00 25.1 13 Nordeste 25 Nordeste 0 -- -- 45
2017-08-14 05:00:00 24.9 8 Norte 25 Norte 0 -- -- 50
2017-08-14 04:00:00 24.9 10 Norte 23 Nordeste 0 -- -- 54
2017-08-14 03:00:00 25 9 Norte 29 Nordeste 0 -- -- 55
2017-08-14 02:00:00 25.1 12 Norte 29 Nordeste 0 -- -- 58
2017-08-14 01:00:00 25.3 15 Nordeste 39 Nordeste 0 -- -- 63
2017-08-14 00:00:00 25.2 23 Nordeste 48 Nordeste 0 -- -- 66
2017-08-13 23:00:00 24.9 8 Norte 57 Nordeste 0 -- -- 71
2017-08-13 22:00:00 25 30 Nordeste 68 Nordeste 0 -- -- 71
2017-08-13 21:00:00 25.2 42 Nordeste 67 Nordeste 0 -- -- 69
2017-08-13 20:00:00 25.8 40 Nordeste 70 Nordeste 0 -- -- 68
2017-08-13 19:00:00 26 46 Nordeste 80 Este 0 -- -- 67
2017-08-13 18:00:00 26.5 48 Nordeste 73 Este 0 -- -- 63
2017-08-13 17:00:00 28 26 Nordeste 65 Nordeste 0 -- -- 55
2017-08-13 16:00:00 27.7 35 Este 61 Nordeste 0 -- -- 55
2017-08-13 15:00:00 27.7 37 Nordeste 63 Nordeste 0 -- -- 57
2017-08-13 14:00:00 27.8 27 Este 51 Nordeste 0 -- -- 60
2017-08-13 13:00:00 27.6 25 Nordeste 52 Nordeste 0 -- -- 60
2017-08-13 12:00:00 27.4 20 Nordeste 46 Nordeste 0 -- -- 61
2017-08-13 11:00:00 26.5 21 Nordeste 46 Nordeste 0 -- -- 62
2017-08-13 10:00:00 25.7 21 Nordeste 45 Nordeste 0 -- -- 65
2017-08-13 09:00:00 24.6 21 Nordeste 46 Este 0 -- -- 69
2017-08-13 08:00:00 23.8 19 Nordeste 35 Nordeste 0 -- -- 70
2017-08-13 07:00:00 23.8 15 Nordeste 35 Nordeste 0 -- -- 69
2017-08-13 06:00:00 23.8 10 Nordeste 29 Nordeste 0 -- -- 70
2017-08-13 05:00:00 23.7 10 Nordeste 23 Este 0 -- -- 69
2017-08-13 04:00:00 23.9 3 Oeste 23 Norte 0 -- -- 69
2017-08-13 03:00:00 24.3 8 Norte 28 Nordeste 0 -- -- 70
2017-08-13 02:00:00 24.3 12 Norte 49 Nordeste 0 -- -- 73
2017-08-13 01:00:00 24.5 23 Nordeste 53 Este 0 -- -- 73
2017-08-13 00:00:00 24.5 18 Nordeste 58 Nordeste 0 -- -- 74
2017-08-12 23:00:00 24.5 36 Nordeste 60 Nordeste 0 -- -- 73
2017-08-12 22:00:00 24.6 28 Nordeste 55 Nordeste 0 -- -- 72
2017-08-12 21:00:00 25 30 Nordeste 50 Este 0 -- -- 70
2017-08-12 20:00:00 25.7 35 Nordeste 59 Este 0 -- -- 66
2017-08-12 19:00:00 26.2 39 Nordeste 63 Nordeste 0 -- -- 59
2017-08-12 18:00:00 25.9 39 Nordeste 64 Este 0 -- -- 64
2017-08-12 17:00:00 25.7 49 Este 71 Este 0 -- -- 66
2017-08-12 16:00:00 26.5 43 Este 70 Este 0 -- -- 63
2017-08-12 15:00:00 27 39 Este 65 Nordeste 0 -- -- 58
2017-08-12 14:00:00 27 45 Nordeste 74 Nordeste 0 -- -- 56
2017-08-12 13:00:00 27.1 40 Nordeste 70 Nordeste 0 -- -- 55
2017-08-12 12:00:00 27 28 Nordeste 65 Nordeste 0 -- -- 56
2017-08-12 11:00:00 26.3 37 Nordeste 60 Este 0 -- -- 58
2017-08-12 10:00:00 25.8 24 Nordeste 49 Nordeste 0 -- -- 62
2017-08-12 09:00:00 24.8 21 Nordeste 39 Nordeste 0 -- -- 67
2017-08-12 08:00:00 23.4 10 Norte 24 Norte 0 -- -- 70
2017-08-12 07:00:00 23.2 7 Norte 21 Nordeste 0 -- -- 70
2017-08-12 06:00:00 23.3 7 Norte 20 Norte 0 -- -- 70
2017-08-12 05:00:00 23.6 6 Norte 27 Nordeste 0 -- -- 70
2017-08-12 04:00:00 24 8 Norte 28 Nordeste 0 -- -- 70
2017-08-12 03:00:00 24.3 10 Norte 27 Noroeste 0 -- -- 70
2017-08-12 02:00:00 24.3 7 Norte 29 Norte 0 -- -- 71
2017-08-12 01:00:00 24.3 10 Norte 30 Norte 0 -- -- 70
2017-08-12 00:00:00 24.5 15 Nordeste 37 Nordeste 0 -- -- 72
2017-08-11 23:00:00 24.7 18 Nordeste 44 Nordeste 0 -- -- 71
2017-08-11 22:00:00 24.7 25 Nordeste 51 Nordeste 0 -- -- 70
2017-08-11 21:00:00 25.1 33 Nordeste 59 Nordeste 0 -- -- 67
2017-08-11 20:00:00 25.5 41 Nordeste 58 Este 0 -- -- 63
2017-08-11 19:00:00 26 36 Nordeste 55 Nordeste 0 -- -- 60
2017-08-11 18:00:00 26.2 35 Este 54 Nordeste 0 -- -- 61
2017-08-11 17:00:00 26.2 35 Este 59 Este 0 -- -- 58
2017-08-11 16:00:00 26.5 35 Este 60 Este 0 -- -- 61
2017-08-11 15:00:00 26.9 33 Este 55 Este 0 -- -- 57
2017-08-11 14:00:00 26.9 30 Nordeste 55 Este 0 -- -- 60
2017-08-11 13:00:00 26.8 28 Este 50 Este 0 -- -- 60
2017-08-11 12:00:00 26.4 32 Este 50 Este 0 -- -- 61
2017-08-11 11:00:00 26.3 30 Este 45 Nordeste 0 -- -- 62
2017-08-11 10:00:00 26 8 Este 28 Noroeste 0 -- -- 68
2017-08-11 09:00:00 24.6 18 Nordeste 37 Sudeste 0 -- -- 73
2017-08-11 08:00:00 23.9 9 Nordeste 23 Nordeste 0 -- -- 75
2017-08-11 07:00:00 23.9 11 Nordeste 25 Nordeste 0 -- -- 75
2017-08-11 06:00:00 24 11 Norte 27 Norte 0 -- -- 76
2017-08-11 05:00:00 24 13 Nordeste 28 Nordeste 0 -- -- 77
2017-08-11 04:00:00 24.1 10 Nordeste 21 Este 0 -- -- 77
2017-08-11 03:00:00 24 11 Norte 24 Nordeste 0 -- -- 78
2017-08-11 02:00:00 24.2 9 Norte 36 Este 0 -- -- 78
2017-08-11 01:00:00 24 26 Nordeste 48 Nordeste 0 -- -- 79
2017-08-11 00:00:00 24 24 Nordeste 46 Este 0 -- -- 78
2017-08-10 23:00:00 23.9 31 Nordeste 54 Nordeste 0 -- -- 78
2017-08-10 22:00:00 23.8 33 Nordeste 61 Nordeste 0 -- -- 78
2017-08-10 21:00:00 23.9 40 Nordeste 66 Nordeste 0 -- -- 77
2017-08-10 20:00:00 24.3 37 Nordeste 63 Nordeste 0 -- -- 75
2017-08-10 19:00:00 24.5 43 Nordeste 62 Nordeste 0 -- -- 73
2017-08-10 18:00:00 24.8 46 Nordeste 67 Este 0 -- -- 72
2017-08-10 17:00:00 25.3 48 Nordeste 69 Este 0 -- -- 70
2017-08-10 16:00:00 25.5 49 Nordeste 71 Nordeste 0 -- -- 67
2017-08-10 15:00:00 25.6 46 Nordeste 71 Este 0 -- -- 67
2017-08-10 14:00:00 26.1 35 Nordeste 63 Nordeste 0 -- -- 66
2017-08-10 13:00:00 25.5 41 Nordeste 68 Nordeste 0 -- -- 67
2017-08-10 12:00:00 24.1 46 Nordeste 74 Nordeste 0 -- -- 74
2017-08-10 11:00:00 24 30 Nordeste 69 Este 0 -- -- 76
2017-08-10 10:00:00 24.1 38 Nordeste 63 Nordeste 0 -- -- 77
2017-08-10 09:00:00 24.2 36 Nordeste 76 Nordeste 0 -- -- 78
2017-08-10 08:00:00 24.6 44 Nordeste 71 Este 0 -- -- 79
2017-08-10 07:00:00 25 46 Nordeste 70 Nordeste 0 -- -- 79
2017-08-10 06:00:00 25.3 2 Este 6 Norte 0 -- -- 76
2017-08-10 05:00:00 24.8 0 Calma 10 Noroeste 0 -- -- 74
2017-08-10 04:00:00 24.7 0 Calma 6 Norte 0 -- -- 73
2017-08-10 03:00:00 24.7 2 Noroeste 8 Sudoeste 0 -- -- 72
2017-08-10 02:00:00 25.2 3 Oeste 12 Oeste 0 -- -- 72
2017-08-10 01:00:00 25.3 6 Oeste 17 Oeste 0 -- -- 70
2017-08-10 00:00:00 25.6 4 Sudoeste 18 Oeste 0 -- -- 71
2017-08-09 23:00:00 25.9 5 Sudeste 21 Sudoeste 0 -- -- 70
2017-08-09 22:00:00 26.2 8 Oeste 21 Oeste 0 -- -- 69
2017-08-09 21:00:00 26.5 10 Oeste 26 Oeste 0 -- -- 73
2017-08-09 20:00:00 27.7 13 Oeste 24 Sudoeste 0 -- -- 74
2017-08-09 19:00:00 27.7 6 Oeste 15 Sudoeste 0 -- -- 72
2017-08-09 18:00:00 27.9 5 Oeste 13 Sudoeste 0 -- -- 72
2017-08-09 17:00:00 28.5 5 Sudoeste 15 Sudoeste 0 -- -- 71
2017-08-09 16:00:00 28.3 7 Sur 14 Sur 0 -- -- 73
2017-08-09 15:00:00 28.5 6 Sur 15 Sudeste 0 -- -- 73
2017-08-09 14:00:00 28.7 7 Sur 15 Sur 0 -- -- 73
2017-08-09 13:00:00 28.9 10 Sur 27 Este 0 -- -- 70
2017-08-09 12:00:00 29.3 22 Este 30 Este 0 -- -- 66
2017-08-09 11:00:00 29.6 19 Este 25 Este 0 -- -- 65
2017-08-09 10:00:00 29.4 6 Este 19 Noroeste 0 -- -- 64
2017-08-09 09:00:00 27.5 8 Noroeste 13 Noroeste 0 -- -- 67
2017-08-09 08:00:00 26.2 3 Norte 18 Noroeste 0 -- -- 69
2017-08-09 07:00:00 26.1 8 Norte 15 Norte 0 -- -- 70
2017-08-09 06:00:00 26.4 6 Noroeste 11 Noroeste 0 -- -- 71
2017-08-09 05:00:00 26.8 2 Norte 27 Norte 0 -- -- 70
2017-08-09 04:00:00 27.3 17 Norte 39 Norte 0 -- -- 73
2017-08-09 03:00:00 27.3 22 Nordeste 46 Nordeste 0 -- -- 77
2017-08-09 02:00:00 27.8 30 Nordeste 53 Nordeste 0 -- -- 78
2017-08-09 01:00:00 28 35 Nordeste 46 Este 0 -- -- 77
2017-08-09 00:00:00 26.8 13 Este 19 Este 0 -- -- 69
2017-08-08 23:00:00 26.6 6 Noroeste 11 Norte 0 -- -- 66
2017-08-08 22:00:00 27.4 8 Oeste 22 Oeste 0 -- -- 68
2017-08-08 21:00:00 28 13 Oeste 29 Oeste 0 -- -- 65
2017-08-08 20:00:00 28.4 14 Oeste 27 Oeste 0 -- -- 64
2017-08-08 19:00:00 28.9 15 Oeste 28 Oeste 0 -- -- 64
2017-08-08 18:00:00 29.2 10 Oeste 28 Oeste 0 -- -- 68
2017-08-08 17:00:00 29.5 15 Oeste 31 Oeste 0 -- -- 68
2017-08-08 16:00:00 28.7 10 Oeste 23 Oeste 0 -- -- 75
2017-08-08 15:00:00 27.8 9 Sudoeste 27 Sur 0 -- -- 77
2017-08-08 14:00:00 27.3 11 Sudeste 22 Sur 0 -- -- 78
2017-08-08 13:00:00 28.5 8 Oeste 28 Sudoeste 0 -- -- 78
2017-08-08 12:00:00 28.8 15 Oeste 30 Sudoeste 0 -- -- 80
2017-08-08 11:00:00 27.8 18 Oeste 31 Oeste 0 -- -- 82
2017-08-08 10:00:00 28.2 26 Oeste 35 Noroeste 0 -- -- 84
2017-08-08 09:00:00 27.5 23 Oeste 42 Oeste 0 -- -- 86
2017-08-08 08:00:00 26.7 28 Oeste 41 Oeste 0 -- -- 87
2017-08-08 07:00:00 26.6 26 Oeste 37 Oeste 0 -- -- 87
2017-08-08 06:00:00 26.7 24 Oeste 35 Oeste 0 -- -- 87
2017-08-08 05:00:00 26.9 21 Oeste 31 Noroeste 0 -- -- 86
2017-08-08 04:00:00 27 18 Oeste 35 Oeste 0 -- -- 86
2017-08-08 03:00:00 27.1 19 Oeste 26 Oeste 0 -- -- 86
2017-08-08 02:00:00 27.3 7 Oeste 22 Oeste 0 -- -- 85
2017-08-08 01:00:00 27.5 12 Oeste 22 Oeste 0 -- -- 84
2017-08-08 00:00:00 27.9 5 Sur 12 Oeste 0 -- -- 83
2017-08-07 23:00:00 27.7 9 Este 22 Este 0 -- -- 82
2017-08-07 22:00:00 28 16 Este 31 Este 0 -- -- 81
2017-08-07 21:00:00 28 24 Este 34 Este 0 -- -- 80
2017-08-07 20:00:00 29 10 Este 18 Este 0 -- -- 76
2017-08-07 19:00:00 29.5 8 Este 16 Este 0 -- -- 74
2017-08-07 18:00:00 29.6 10 Este 22 Este 0 -- -- 74
2017-08-07 17:00:00 30.4 10 Este 18 Este 0 -- -- 70
2017-08-07 16:00:00 30.7 8 Este 24 Este 0 -- -- 71
2017-08-07 15:00:00 30.3 18 Este 28 Este 0 -- -- 72
2017-08-07 14:00:00 30.5 17 Este 30 Este 0 -- -- 72
2017-08-07 13:00:00 30 21 Este 31 Este 0 -- -- 74
2017-08-07 12:00:00 29.4 23 Este 32 Este 0 -- -- 77
2017-08-07 11:00:00 28.6 22 Este 30 Este 0 -- -- 80
2017-08-07 10:00:00 27.7 22 Este 36 Este 0 -- -- 83
2017-08-07 09:00:00 27.7 22 Este 33 Nordeste 0 -- -- 81
2017-08-07 08:00:00 27.1 4 Norte 14 Noroeste 0 -- -- 81
2017-08-07 07:00:00 27.2 6 Noroeste 13 Noroeste 0 -- -- 81
2017-08-07 06:00:00 27.3 2 Noroeste 21 Nordeste 0 -- -- 81
2017-08-07 05:00:00 27.4 12 Este 26 Este 0 -- -- 80
2017-08-07 04:00:00 27.5 14 Nordeste 22 Este 0 -- -- 80
2017-08-07 03:00:00 27.6 6 Nordeste 20 Este 0 -- -- 79
2017-08-07 02:00:00 27.7 12 Nordeste 33 Nordeste 0 -- -- 78
2017-08-07 01:00:00 27.7 10 Nordeste 22 Nordeste 0 -- -- 78
2017-08-07 00:00:00 27.7 3 Este 12 Nordeste 0 -- -- 77
2017-08-06 23:00:00 27.8 7 Nordeste 21 Nordeste 0 -- -- 77
2017-08-06 22:00:00 28 15 Este 31 Nordeste 0 -- -- 78
2017-08-06 21:00:00 28.1 23 Este 38 Este 0 -- -- 77
2017-08-06 20:00:00 28.4 23 Este 48 Este 0 -- -- 78
2017-08-06 19:00:00 28.5 33 Este 47 Este 0 -- -- 79
2017-08-06 18:00:00 28.4 34 Este 54 Este 0 -- -- 80
2017-08-06 17:00:00 28.4 40 Este 66 Este 0 -- -- 79
2017-08-06 16:00:00 28.6 42 Este 52 Este 0 -- -- 79
2017-08-06 15:00:00 28.8 37 Este 45 Este 0 -- -- 79
2017-08-06 14:00:00 29.3 31 Este 40 Este 0 -- -- 77
2017-08-06 13:00:00 29.3 27 Este 34 Sudeste 0 -- -- 76
2017-08-06 12:00:00 29.9 23 Este 30 Este 0 -- -- 72
2017-08-06 11:00:00 29.7 4 Sudeste 8 Sur 0 -- -- 76
2017-08-06 10:00:00 28.7 3 Sudoeste 7 Oeste 0 -- -- 80
2017-08-06 09:00:00 27.8 0 Calma 6 Noroeste 0 -- -- 81
2017-08-06 08:00:00 26.6 2 Sudoeste 8 Sudeste 0 -- -- 81
2017-08-06 07:00:00 26.4 3 Nordeste 5 Noroeste 0 -- -- 77
2017-08-06 06:00:00 26.4 4 Norte 6 Noroeste 0 -- -- 76
2017-08-06 05:00:00 26.1 0 Calma 9 Norte 0 -- -- 74
2017-08-06 04:00:00 26.5 5 Norte 11 Noroeste 0 -- -- 75
2017-08-06 03:00:00 27 0 Calma 6 Norte 0 -- -- 75
2017-08-06 02:00:00 27.3 2 Este 5 Este 0 -- -- 74
2017-08-06 01:00:00 27.8 2 Sur 5 Sudeste 0 -- -- 74
2017-08-06 00:00:00 28.8 0 Calma 12 Oeste 0 -- -- 72
2017-08-05 23:00:00 28.9 9 Oeste 18 Noroeste 0 -- -- 67
2017-08-05 22:00:00 28.7 12 Oeste 18 Noroeste 0 -- -- 64
2017-08-05 21:00:00 29.4 10 Oeste 13 Oeste 0 -- -- 66
2017-08-05 20:00:00 30.2 5 Oeste 10 Oeste 0 -- -- 72
2017-08-05 19:00:00 29.6 5 Sudeste 20 Este 0 -- -- 71
2017-08-05 18:00:00 29.5 17 Este 29 Este 0 -- -- 73
2017-08-05 17:00:00 29.3 24 Este 39 Este 0 -- -- 73
2017-08-05 16:00:00 29.6 26 Este 33 Este 0 -- -- 72
2017-08-05 15:00:00 29.7 26 Este 32 Este 0 -- -- 70
2017-08-05 14:00:00 30.8 17 Este 28 Este 0 -- -- 66
2017-08-05 13:00:00 30.8 15 Este 28 Este 0 -- -- 61
2017-08-05 12:00:00 31.1 11 Este 21 Este 0 -- -- 60
2017-08-05 11:00:00 31.4 4 Sudeste 8 Este 0 -- -- 58
2017-08-05 10:00:00 30.7 4 Oeste 9 Oeste 0 -- -- 59
2017-08-05 09:00:00 28.5 2 Oeste 7 Oeste 0 -- -- 53
2017-08-05 08:00:00 27 0 Calma 6 Noroeste 0 -- -- 54
2017-08-05 07:00:00 27 5 Este 12 Este 0 -- -- 52
2017-08-05 06:00:00 27 8 Este 11 Este 0 -- -- 67
2017-08-05 05:00:00 27.4 5 Este 10 Este 0 -- -- 66
2017-08-05 04:00:00 27.7 6 Este 11 Este 0 -- -- 58
2017-08-05 03:00:00 27.9 5 Este 8 Este 0 -- -- 57
2017-08-05 02:00:00 28.1 8 Este 12 Este 0 -- -- 54
2017-08-05 01:00:00 27.6 2 Oeste 8 Este 0 -- -- 53
2017-08-05 00:00:00 27.5 4 Noroeste 15 Noroeste 0 -- -- 56
2017-08-04 23:00:00 27.7 5 Noroeste 7 Oeste 0 -- -- 68
2017-08-04 22:00:00 27.9 0 Calma 6 Este 0 -- -- 68
2017-08-04 21:00:00 28.4 4 Sudeste 8 Este 0 -- -- 67
2017-08-04 20:00:00 28.7 5 Este 9 Sudeste 0 -- -- 62
2017-08-04 19:00:00 29.1 3 Sudoeste 7 Sudoeste 0 -- -- 60
2017-08-04 18:00:00 29.4 4 Sudeste 9 Sudeste 0 -- -- 60
2017-08-04 17:00:00 30.5 6 Sudeste 10 Sudeste 0 -- -- 60
2017-08-04 16:00:00 31 5 Sudeste 10 Sudeste 0 -- -- 57
2017-08-04 15:00:00 31.5 5 Sudeste 10 Este 0 -- -- 59
2017-08-04 14:00:00 31.4 5 Sur 8 Sudeste 0 -- -- 58
2017-08-04 13:00:00 31.1 4 Sudoeste 8 Oeste 0 -- -- 67
2017-08-04 12:00:00 30.9 4 Sudoeste 8 Sudeste 0 -- -- 71
2017-08-04 11:00:00 29.7 2 Sudoeste 6 Sudoeste 0 -- -- 72
2017-08-04 10:00:00 28.2 5 Oeste 7 Oeste 0 -- -- 75
2017-08-04 09:00:00 26.9 3 Oeste 6 Noroeste 0 -- -- 77
2017-08-04 08:00:00 25.4 2 Noroeste 21 Noroeste 0 -- -- 81
2017-08-04 07:00:00 25.6 14 Oeste 21 Noroeste 0 -- -- 81
2017-08-04 06:00:00 25.3 9 Oeste 19 Oeste 0 -- -- 79
2017-08-04 05:00:00 25.1 10 Noroeste 13 Noroeste 0 -- -- 79
2017-08-04 04:00:00 25.8 8 Oeste 22 Oeste 0 -- -- 80
2017-08-04 03:00:00 26.4 14 Oeste 21 Oeste 0 -- -- 80
2017-08-04 02:00:00 26.6 11 Oeste 22 Noroeste 0 -- -- 77
2017-08-04 01:00:00 27.4 9 Oeste 17 Noroeste 0 -- -- 74
2017-08-04 00:00:00 27.8 6 Oeste 11 Oeste 0 -- -- 71
2017-08-03 23:00:00 28.4 8 Oeste 15 Oeste 0 -- -- 64
2017-08-03 22:00:00 28.7 11 Oeste 25 Noroeste 0 -- -- 44
2017-08-03 21:00:00 29.1 15 Oeste 29 Oeste 0 -- -- 44
2017-08-03 20:00:00 29.2 18 Oeste 28 Oeste 0 -- -- 49
2017-08-03 19:00:00 29.2 13 Oeste 21 Oeste 0 -- -- 63
2017-08-03 18:00:00 30.2 9 Oeste 16 Noroeste 0 -- -- 64
2017-08-03 17:00:00 30.9 8 Oeste 12 Oeste 0 -- -- 64
2017-08-03 16:00:00 30.8 10 Oeste 14 Oeste 0 -- -- 63
2017-08-03 15:00:00 30.8 11 Oeste 15 Oeste 0 -- -- 64
2017-08-03 14:00:00 31 8 Oeste 15 Oeste 0 -- -- 65
2017-08-03 13:00:00 30.5 6 Oeste 16 Oeste 0 -- -- 68
2017-08-03 12:00:00 30 6 Oeste 12 Oeste 0 -- -- 73
2017-08-03 11:00:00 28.8 5 Oeste 11 Oeste 0 -- -- 78
2017-08-03 10:00:00 28 6 Sudoeste 13 Oeste 0 -- -- 83
2017-08-03 09:00:00 26.9 2 Sudoeste 5 Sur 0 -- -- 86
2017-08-03 08:00:00 25.9 0 Calma 9 Noroeste 0 -- -- 86
2017-08-03 07:00:00 26.1 5 Oeste 12 Noroeste 0 -- -- 85
2017-08-03 06:00:00 25.9 10 Noroeste 15 Noroeste 0 -- -- 85
2017-08-03 05:00:00 26.4 7 Oeste 14 Oeste 0 -- -- 85
2017-08-03 04:00:00 26.5 9 Oeste 16 Oeste 0 -- -- 84
2017-08-03 03:00:00 26.7 14 Oeste 23 Oeste 0 -- -- 83
2017-08-03 02:00:00 27.2 6 Oeste 12 Oeste 0 -- -- 79
2017-08-03 01:00:00 26.9 5 Noroeste 15 Este 0 -- -- 78
2017-08-03 00:00:00 27.2 9 Nordeste 30 Noroeste 0 -- -- 81
2017-08-02 23:00:00 27.4 12 Oeste 19 Noroeste 0 -- -- 82
2017-08-02 22:00:00 28 10 Oeste 16 Oeste 0 -- -- 79
2017-08-02 21:00:00 28.4 3 Oeste 5 Sudoeste 0 -- -- 76
2017-08-02 20:00:00 29.1 2 Oeste 9 Sudoeste 0 -- -- 75
2017-08-02 19:00:00 29.4 3 Oeste 10 Sudoeste 0 -- -- 74
2017-08-02 18:00:00 29.8 4 Oeste 11 Sudoeste 0 -- -- 73
2017-08-02 17:00:00 30.5 6 Oeste 14 Sudoeste 0 -- -- 70
2017-08-02 16:00:00 31 5 Oeste 17 Oeste 0 -- -- 69
2017-08-02 15:00:00 29.5 7 Oeste 18 Oeste 0 -- -- 74
2017-08-02 14:00:00 28.7 4 Sudoeste 11 Sudoeste 0 -- -- 76
2017-08-02 13:00:00 29.3 4 Sur 12 Este 0 -- -- 72
2017-08-02 12:00:00 29.1 4 Sur 9 Sur 0 -- -- 72
2017-08-02 11:00:00 28.8 6 Oeste 17 Noroeste 0 -- -- 74
2017-08-02 10:00:00 27.6 12 Oeste 21 Oeste 0 -- -- 78
2017-08-02 09:00:00 27.1 9 Oeste 13 Oeste 0 -- -- 80
2017-08-02 08:00:00 26.2 3 Noroeste 14 Norte 0 -- -- 79
2017-08-02 07:00:00 26 9 Noroeste 22 Noroeste 0 -- -- 81
2017-08-02 06:00:00 27.4 9 Oeste 35 Este 0 -- -- 76
2017-08-02 05:00:00 27.5 15 Este 31 Este 0 -- -- 71
2017-08-02 04:00:00 26.9 13 Este 29 Este 0 -- -- 74
2017-08-02 03:00:00 26.9 7 Norte 19 Nordeste 0 -- -- 76
2017-08-02 02:00:00 26.8 9 Norte 32 Oeste 0 -- -- 76
2017-08-02 01:00:00 27.7 13 Nordeste 53 Este 0 -- -- 69
2017-08-02 00:00:00 27 24 Este 61 Nordeste 0 -- -- 78
2017-08-01 23:00:00 28 36 Nordeste 53 Nordeste 0 -- -- 71
2017-08-01 22:00:00 27.4 26 Nordeste 58 Nordeste 0 -- -- 77
2017-08-01 21:00:00 26.8 4 Oeste 32 Noroeste 0 -- -- 74
2017-08-01 20:00:00 27.1 2 Sudoeste 13 Este 0 -- -- 72
2017-08-01 19:00:00 27.7 5 Sudeste 16 Este 0 -- -- 72
2017-08-01 18:00:00 28.3 4 Oeste 26 Noroeste 0 -- -- 69
2017-08-01 17:00:00 28.2 15 Oeste 27 Oeste 0 -- -- 69
2017-08-01 16:00:00 29.5 7 Oeste 23 Oeste 0 -- -- 71
2017-08-01 15:00:00 29.5 14 Oeste 22 Sudoeste 0 -- -- 71
2017-08-01 14:00:00 29.4 6 Oeste 13 Sudoeste 0 -- -- 71
2017-08-01 13:00:00 28 7 Sur 13 Sur 0 -- -- 72
2017-08-01 12:00:00 27.9 6 Sur 12 Este 0 -- -- 72
2017-08-01 11:00:00 28.3 4 Sur 12 Sudeste 0 -- -- 75
2017-08-01 10:00:00 27.5 5 Sudeste 32 Noroeste 0 -- -- 82
2017-08-01 09:00:00 25.8 21 Oeste 35 Noroeste 0 -- -- 85
2017-08-01 08:00:00 25.3 9 Oeste 15 Oeste 0 -- -- 85
2017-08-01 07:00:00 25.2 2 Nordeste 9 Noroeste 0 -- -- 85
2017-08-01 06:00:00 25.5 3 Oeste 23 Noroeste 0 -- -- 85
2017-08-01 05:00:00 25.3 18 Oeste 45 Noroeste 0 -- -- 84
2017-08-01 04:00:00 25.5 13 Oeste 31 Oeste 0 -- -- 83
2017-08-01 03:00:00 25.2 6 Sudeste 27 Este 0 -- -- 83
2017-08-01 02:00:00 26.4 7 Sudeste 23 Este 0 -- -- 80
2017-08-01 01:00:00 26.4 5 Sur 23 Oeste 0 -- -- 76
2017-08-01 00:00:00 27 14 Oeste 23 Oeste 0 -- -- 77
2017-07-31 23:00:00 27.4 13 Oeste 24 Oeste 0 -- -- 71
2017-07-31 22:00:00 26.9 13 Oeste 24 Noroeste 0 -- -- 72
2017-07-31 21:00:00 26.8 4 Oeste 15 Sudeste 0 -- -- 75
2017-07-31 20:00:00 27.5 12 Sudeste 18 Sudeste 0 -- -- 74
2017-07-31 19:00:00 28.5 4 Noroeste 20 Este 0 -- -- 72
2017-07-31 18:00:00 28.6 17 Este 23 Este 0 -- -- 68
2017-07-31 17:00:00 29.9 11 Este 19 Este 0 -- -- 64
2017-07-31 16:00:00 29.5 9 Este 23 Este 0 -- -- 72
2017-07-31 15:00:00 29.6 16 Este 30 Este 0 -- -- 73
2017-07-31 14:00:00 29.6 22 Este 27 Este 0 -- -- 71
2017-07-31 13:00:00 30.9 9 Este 16 Sudeste 0 -- -- 68
2017-07-31 12:00:00 29.6 5 Sur 11 Sudeste 0 -- -- 69
2017-07-31 11:00:00 29.3 4 Sudeste 14 Oeste 0 -- -- 70
2017-07-31 10:00:00 28.5 7 Oeste 17 Noroeste 0 -- -- 70
2017-07-31 09:00:00 27.1 4 Oeste 9 Oeste 0 -- -- 68
2017-07-31 08:00:00 25.8 3 Noroeste 7 Noroeste 0 -- -- 70
2017-07-31 07:00:00 25.8 3 Oeste 8 Este 0 -- -- 66
2017-07-31 06:00:00 25.9 3 Sudoeste 22 Este 0 -- -- 67
2017-07-31 05:00:00 26.6 19 Este 36 Este 0 -- -- 73
2017-07-31 04:00:00 26.2 23 Este 30 Este 0 -- -- 66
2017-07-31 03:00:00 26.2 5 Este 16 Este 0 -- -- 66
2017-07-31 02:00:00 27.7 4 Sur 28 Norte 0 -- -- 48
2017-07-31 01:00:00 25.8 19 Oeste 29 Oeste 0 -- -- 70
2017-07-31 00:00:00 26.4 7 Oeste 16 Oeste 0 -- -- 73
2017-07-30 23:00:00 26.7 7 Oeste 17 Oeste 0 -- -- 72
2017-07-30 22:00:00 27.4 9 Oeste 18 Oeste 0 -- -- 71
2017-07-30 21:00:00 28.5 3 Sudoeste 11 Oeste 0 -- -- 71
2017-07-30 20:00:00 28.9 6 Oeste 23 Oeste 0 -- -- 71
2017-07-30 19:00:00 28.8 18 Oeste 24 Noroeste 0 -- -- 69
2017-07-30 18:00:00 29.3 13 Oeste 26 Noroeste 0 -- -- 65
2017-07-30 17:00:00 30.5 17 Oeste 26 Noroeste 0 -- -- 61
2017-07-30 16:00:00 31.6 11 Oeste 19 Oeste 0 -- -- 56
2017-07-30 15:00:00 31.2 6 Oeste 12 Oeste 0 -- -- 52
2017-07-30 14:00:00 31 4 Oeste 8 Oeste 0 -- -- 55
2017-07-30 13:00:00 29.5 3 Sudoeste 13 Sudeste 0 -- -- 68
2017-07-30 12:00:00 28.5 8 Sudeste 14 Sur 0 -- -- 74
2017-07-30 11:00:00 29.2 3 Sur 20 Este 0 -- -- 73
2017-07-30 10:00:00 28.6 9 Este 21 Este 0 -- -- 70
2017-07-30 09:00:00 26.9 15 Este 33 Este 0 -- -- 72
2017-07-30 08:00:00 25.6 10 Este 14 Este 0 -- -- 70
2017-07-30 07:00:00 24.7 8 Noroeste 15 Noroeste 0 -- -- 69
2017-07-30 06:00:00 24.6 7 Noroeste 22 Noroeste 0 -- -- 75
2017-07-30 05:00:00 25.7 13 Oeste 24 Noroeste 0 -- -- 76
2017-07-30 04:00:00 24.9 5 Noroeste 11 Noroeste 0 -- -- 70
2017-07-30 03:00:00 26.3 4 Sudeste 12 Noroeste 0 -- -- 70
2017-07-30 02:00:00 26.3 7 Noroeste 22 Norte 0 -- -- 61
2017-07-30 01:00:00 26.3 14 Noroeste 26 Noroeste 0 -- -- 76
2017-07-30 00:00:00 26.5 17 Noroeste 25 Noroeste 0 -- -- 83
2017-07-29 23:00:00 26.7 9 Oeste 16 Oeste 0 -- -- 82
2017-07-29 22:00:00 26.8 8 Oeste 13 Oeste 0 -- -- 82
2017-07-29 21:00:00 27.5 4 Noroeste 8 Noroeste 0 -- -- 83
2017-07-29 20:00:00 27.3 4 Sudeste 9 Sudeste 0 -- -- 83
2017-07-29 19:00:00 28 6 Este 15 Este 0 -- -- 82
2017-07-29 18:00:00 28.6 6 Este 16 Este 0 -- -- 80
2017-07-29 17:00:00 29.1 10 Este 23 Este 0 -- -- 78
2017-07-29 16:00:00 29.2 11 Este 29 Este 0 -- -- 79
2017-07-29 15:00:00 28.3 23 Este 30 Este 0 -- -- 81
2017-07-29 14:00:00 28 27 Este 35 Este 0 -- -- 78
2017-07-29 13:00:00 28 31 Este 44 Este 0 -- -- 74
2017-07-29 12:00:00 27.9 31 Este 37 Este 0 -- -- 71
2017-07-29 11:00:00 28.2 23 Este 32 Este 0 -- -- 71
2017-07-29 10:00:00 28.6 17 Este 23 Sudeste 0 -- -- 65
2017-07-29 09:00:00 27.3 8 Este 10 Noroeste 0 -- -- 60
2017-07-29 08:00:00 24.6 5 Noroeste 9 Noroeste 0 -- -- 70
2017-07-29 07:00:00 24.4 9 Noroeste 18 Noroeste 0 -- -- 80
2017-07-29 06:00:00 24.9 11 Oeste 17 Oeste 0 -- -- 80
2017-07-29 05:00:00 25.1 8 Oeste 10 Noroeste 0 -- -- 77
2017-07-29 04:00:00 25.4 0 Calma 9 Noroeste 0 -- -- 74
2017-07-29 03:00:00 24.7 5 Noroeste 10 Noroeste 0 -- -- 73
2017-07-29 02:00:00 26.2 2 Sudoeste 15 Oeste 0 -- -- 72
2017-07-29 01:00:00 26.1 7 Oeste 11 Oeste 0 -- -- 69
2017-07-29 00:00:00 26.6 0 Calma 6 Sudoeste 0 -- -- 65
2017-07-28 23:00:00 27 2 Sudoeste 23 Oeste 0 -- -- 63
2017-07-28 22:00:00 27.5 16 Oeste 28 Oeste 0 -- -- 60
2017-07-28 21:00:00 27.8 18 Oeste 31 Noroeste 0 -- -- 54
2017-07-28 20:00:00 27.5 20 Oeste 31 Oeste 0 -- -- 64
2017-07-28 19:00:00 28.2 13 Oeste 20 Oeste 0 -- -- 70
2017-07-28 18:00:00 28.8 12 Oeste 19 Oeste 0 -- -- 69
2017-07-28 17:00:00 29.8 13 Oeste 21 Sudoeste 0 -- -- 68
2017-07-28 16:00:00 30.2 15 Oeste 20 Oeste 0 -- -- 66
2017-07-28 15:00:00 30.1 15 Oeste 21 Oeste 0 -- -- 64
2017-07-28 14:00:00 30.4 13 Oeste 20 Oeste 0 -- -- 66
2017-07-28 13:00:00 29.8 14 Oeste 26 Noroeste 0 -- -- 68
2017-07-28 12:00:00 29.6 14 Oeste 23 Oeste 0 -- -- 69
2017-07-28 11:00:00 29.3 9 Oeste 15 Oeste 0 -- -- 72
2017-07-28 10:00:00 28.8 4 Sudeste 28 Este 0 -- -- 71
2017-07-28 09:00:00 28 14 Este 20 Este 0 -- -- 57
2017-07-28 08:00:00 27.2 8 Noroeste 26 Noroeste 0 -- -- 56
2017-07-28 07:00:00 24.9 10 Oeste 18 Noroeste 0 -- -- 77
2017-07-28 06:00:00 24.5 8 Noroeste 13 Noroeste 0 -- -- 76
2017-07-28 05:00:00 25.5 7 Oeste 15 Oeste 0 -- -- 75
2017-07-28 04:00:00 25.7 7 Oeste 13 Oeste 0 -- -- 68
2017-07-28 03:00:00 25.7 6 Norte 29 Noroeste 0 -- -- 67
2017-07-28 02:00:00 25.2 18 Oeste 26 Oeste 0 -- -- 81
2017-07-28 01:00:00 26 9 Oeste 16 Noroeste 0 -- -- 82
2017-07-28 00:00:00 25.6 9 Noroeste 14 Oeste 0 -- -- 78
2017-07-27 23:00:00 26.3 9 Oeste 13 Noroeste 0 -- -- 78
2017-07-27 22:00:00 26.7 6 Oeste 10 Oeste 0 -- -- 78
2017-07-27 21:00:00 27.2 0 Calma 7 Oeste 0 -- -- 76
2017-07-27 20:00:00 27.4 2 Oeste 9 Sudoeste 0 -- -- 75
2017-07-27 19:00:00 27.6 5 Sudeste 18 Este 0 -- -- 73
2017-07-27 18:00:00 28 11 Este 22 Este 0 -- -- 71
2017-07-27 17:00:00 28.8 10 Este 20 Este 0 -- -- 70
2017-07-27 16:00:00 29.1 13 Este 23 Este 0 -- -- 71
2017-07-27 15:00:00 28.8 17 Este 25 Este 0 -- -- 70
2017-07-27 14:00:00 28.3 21 Este 27 Este 0 -- -- 71
2017-07-27 13:00:00 28.4 21 Este 28 Este 0 -- -- 73
2017-07-27 12:00:00 27.8 23 Este 30 Este 0 -- -- 74
2017-07-27 11:00:00 27.4 24 Este 31 Este 0 -- -- 76
2017-07-27 10:00:00 27.8 10 Este 15 Este 0 -- -- 75
2017-07-27 09:00:00 26.5 3 Sudoeste 14 Este 0 -- -- 76
2017-07-27 08:00:00 25 3 Nordeste 9 Nordeste 0 -- -- 73
2017-07-27 07:00:00 24.4 2 Norte 9 Norte 0 -- -- 71
2017-07-27 06:00:00 24.5 8 Norte 11 Norte 0 -- -- 72
2017-07-27 05:00:00 24.4 4 Nordeste 5 Este 0 -- -- 77
2017-07-27 04:00:00 24.6 2 Nordeste 10 Nordeste 0 -- -- 78
2017-07-27 03:00:00 24.8 5 Norte 8 Norte 0 -- -- 80
2017-07-27 02:00:00 24.9 5 Noroeste 10 Noroeste 0 -- -- 79
2017-07-27 01:00:00 25.2 3 Noroeste 10 Oeste 0 -- -- 78
2017-07-27 00:00:00 25.2 3 Noroeste 5 Noroeste 0 -- -- 80
2017-07-26 23:00:00 25.8 0 Calma 4 Este 0 -- -- 81
2017-07-26 22:00:00 26.1 4 Este 10 Este 0 -- -- 80
2017-07-26 21:00:00 26.5 7 Este 11 Este 0 -- -- 79
2017-07-26 20:00:00 26.5 5 Sudeste 8 Sudeste 0 -- -- 78
2017-07-26 19:00:00 26.8 4 Sudeste 8 Sudeste 0 -- -- 77
2017-07-26 18:00:00 27.3 5 Sur 9 Sur 0 -- -- 74
2017-07-26 17:00:00 28.2 5 Sudoeste 10 Sur 0 -- -- 73
2017-07-26 16:00:00 28.5 7 Sudeste 12 Sudeste 0 -- -- 72
2017-07-26 15:00:00 30.2 4 Sudeste 19 Este 0 -- -- 68
2017-07-26 14:00:00 29.3 9 Este 21 Este 0 -- -- 70
2017-07-26 13:00:00 28.8 13 Este 28 Este 0 -- -- 71
2017-07-26 12:00:00 27.9 23 Este 30 Este 0 -- -- 71
2017-07-26 11:00:00 27.3 24 Este 31 Este 0 -- -- 72
2017-07-26 10:00:00 27.5 17 Este 22 Este 0 -- -- 71
2017-07-26 09:00:00 26.2 4 Nordeste 9 Nordeste 0 -- -- 79
2017-07-26 08:00:00 24.7 3 Nordeste 8 Norte 0 -- -- 82
2017-07-26 07:00:00 24.8 6 Nordeste 20 Nordeste 0 -- -- 82
2017-07-26 06:00:00 25 11 Este 19 Este 0 -- -- 81
2017-07-26 05:00:00 24.8 5 Este 15 Norte 0 -- -- 80
2017-07-26 04:00:00 25 9 Nordeste 15 Nordeste 0 -- -- 81
2017-07-26 03:00:00 25.3 4 Este 16 Nordeste 0 -- -- 81
2017-07-26 02:00:00 25.4 12 Nordeste 21 Nordeste 0 -- -- 81
2017-07-26 01:00:00 25.6 11 Este 22 Este 0 -- -- 79
2017-07-26 00:00:00 25.5 15 Nordeste 27 Nordeste 0 -- -- 80
2017-07-25 23:00:00 25.6 15 Este 27 Este 0 -- -- 81
2017-07-25 22:00:00 25.7 14 Este 36 Este 0 -- -- 81
2017-07-25 21:00:00 25.8 21 Este 38 Este 0 -- -- 80
2017-07-25 20:00:00 26 24 Este 41 Este 0 -- -- 80
2017-07-25 19:00:00 26 33 Este 40 Este 0 -- -- 80
2017-07-25 18:00:00 26.1 33 Este 46 Este 0 -- -- 79
2017-07-25 17:00:00 26.3 39 Este 61 Este 0 -- -- 76
2017-07-25 16:00:00 26.7 39 Este 55 Este 0 -- -- 75
2017-07-25 15:00:00 26.9 45 Este 58 Este 0 -- -- 74
2017-07-25 14:00:00 27.7 35 Este 56 Este 0 -- -- 68
2017-07-25 13:00:00 27.7 33 Este 58 Este 0 -- -- 70
2017-07-25 12:00:00 27.4 37 Este 65 Nordeste 0 -- -- 69
2017-07-25 11:00:00 27.2 38 Este 58 Este 0 -- -- 66
2017-07-25 10:00:00 27.1 33 Este 48 Este 0 -- -- 68
2017-07-25 09:00:00 26.2 25 Nordeste 50 Nordeste 0 -- -- 74
2017-07-25 08:00:00 25 25 Nordeste 45 Nordeste 0 -- -- 78
2017-07-25 07:00:00 24.8 27 Nordeste 39 Este 0 -- -- 76
2017-07-25 06:00:00 24.8 18 Este 33 Este 0 -- -- 76
2017-07-25 05:00:00 24 3 Sur 8 Sudoeste 0 -- -- 78
2017-07-25 04:00:00 24 2 Noroeste 12 Nordeste 0 -- -- 79
2017-07-25 03:00:00 24.1 4 Nordeste 10 Nordeste 0 -- -- 78
2017-07-25 02:00:00 24.1 3 Noroeste 8 Noroeste 0 -- -- 78
2017-07-25 01:00:00 24.6 5 Nordeste 15 Este 0 -- -- 79
2017-07-25 00:00:00 25 3 Sudoeste 28 Este 0 -- -- 78
2017-07-24 23:00:00 24.8 24 Este 37 Este 0 -- -- 78
2017-07-24 22:00:00 24.9 23 Este 31 Este 0 -- -- 78
2017-07-24 21:00:00 25.7 9 Este 13 Nordeste 0 -- -- 75
2017-07-24 20:00:00 25.7 4 Sudeste 8 Sudoeste 0 -- -- 74
2017-07-24 19:00:00 25.8 4 Sudeste 8 Sudoeste 0 -- -- 74
2017-07-24 18:00:00 26.3 5 Sur 9 Sur 0 -- -- 71
2017-07-24 17:00:00 27.1 5 Sur 10 Sudeste 0 -- -- 67
2017-07-24 16:00:00 28.2 6 Sudeste 11 Sudeste 0 -- -- 63
2017-07-24 15:00:00 28.2 6 Sudeste 11 Sudeste 0 -- -- 62
2017-07-24 14:00:00 28.4 5 Sur 13 Sur 0 -- -- 61
2017-07-24 13:00:00 28.8 7 Oeste 17 Oeste 0 -- -- 62
2017-07-24 12:00:00 28.4 9 Oeste 15 Noroeste 0 -- -- 66
2017-07-24 11:00:00 27.7 6 Oeste 13 Oeste 0 -- -- 66
2017-07-24 10:00:00 26.6 9 Oeste 15 Oeste 0 -- -- 70
2017-07-24 09:00:00 24.8 13 Oeste 18 Noroeste 0 -- -- 78
2017-07-24 08:00:00 22.7 7 Noroeste 18 Noroeste 0 -- -- 82
2017-07-24 07:00:00 22.5 8 Noroeste 28 Noroeste 0 -- -- 82
2017-07-24 06:00:00 23 13 Oeste 24 Noroeste 0 -- -- 84
2017-07-24 05:00:00 22.8 6 Noroeste 15 Noroeste 0 -- -- 83
2017-07-24 04:00:00 23.5 12 Oeste 32 Noroeste 0 -- -- 84
2017-07-24 03:00:00 23.6 18 Oeste 27 Oeste 0 -- -- 84
2017-07-24 02:00:00 23.9 10 Oeste 17 Oeste 0 -- -- 82
2017-07-24 01:00:00 23.6 4 Noroeste 9 Noroeste 0 -- -- 81
2017-07-24 00:00:00 24.1 0 Calma 6 Sur 0 -- -- 81
2017-07-23 23:00:00 24.8 3 Sur 10 Oeste 0 -- -- 79
2017-07-23 22:00:00 25.2 3 Oeste 10 Oeste 0 -- -- 76
2017-07-23 21:00:00 25.7 5 Oeste 8 Oeste 0 -- -- 74
2017-07-23 20:00:00 25.4 4 Sudoeste 7 Noroeste 0 -- -- 73
2017-07-23 19:00:00 25.7 4 Sudeste 10 Sudeste 0 -- -- 72
2017-07-23 18:00:00 26 4 Sur 9 Sudeste 0 -- -- 71
2017-07-23 17:00:00 27 5 Sudeste 10 Sudeste 0 -- -- 71
2017-07-23 16:00:00 27.7 6 Sudeste 10 Sudeste 0 -- -- 69
2017-07-23 15:00:00 28.1 5 Sudoeste 10 Sudeste 0 -- -- 69
2017-07-23 14:00:00 27.8 5 Sudeste 10 Sudoeste 0 -- -- 69
2017-07-23 13:00:00 27.4 4 Sudoeste 11 Sudoeste 0 -- -- 71
2017-07-23 12:00:00 27.3 5 Sur 11 Sur 0 -- -- 71
2017-07-23 11:00:00 27.1 3 Sudoeste 19 Noroeste 0 -- -- 76
2017-07-23 10:00:00 25.2 9 Oeste 16 Oeste 0 -- -- 82
2017-07-23 09:00:00 24.4 2 Sur 9 Este 0 -- -- 82
2017-07-23 08:00:00 23.7 3 Oeste 9 Oeste 0 -- -- 83
2017-07-23 07:00:00 23.8 2 Sudeste 15 Sudeste 0 -- -- 82
2017-07-23 06:00:00 23.9 4 Nordeste 21 Sudeste 0 -- -- 82
2017-07-23 05:00:00 24.2 5 Sudeste 29 Este 0 -- -- 81
2017-07-23 04:00:00 24.7 24 Este 32 Este 0 -- -- 79
2017-07-23 03:00:00 25.1 13 Este 25 Este 0 -- -- 73
2017-07-23 02:00:00 24.5 21 Este 41 Este 0 -- -- 72
2017-07-23 01:00:00 26 4 Oeste 48 Noroeste 0 -- -- 59
2017-07-23 00:00:00 25.1 21 Noroeste 46 Noroeste 0 -- -- 61
2017-07-22 23:00:00 24.1 6 Oeste 13 Oeste 0 -- -- 70
2017-07-22 22:00:00 24.3 4 Oeste 6 Oeste 0 -- -- 72
2017-07-22 21:00:00 24.4 3 Sudoeste 9 Oeste 0 -- -- 71
2017-07-22 20:00:00 24.8 4 Sudoeste 8 Norte 0 -- -- 71
2017-07-22 19:00:00 25.1 4 Sudeste 10 Sudoeste 0 -- -- 71
2017-07-22 18:00:00 26.2 5 Oeste 12 Oeste 0 -- -- 70
2017-07-22 17:00:00 26.3 5 Sur 10 Sudeste 0 -- -- 71
2017-07-22 16:00:00 27.6 4 Sur 10 Sudoeste 0 -- -- 66
2017-07-22 15:00:00 27.9 6 Sudoeste 14 Oeste 0 -- -- 66
2017-07-22 14:00:00 27.4 4 Sudoeste 11 Sudoeste 0 -- -- 68
2017-07-22 13:00:00 26.4 6 Sur 14 Este 0 -- -- 69
2017-07-22 12:00:00 27 5 Sudeste 13 Sudeste 0 -- -- 68
2017-07-22 11:00:00 26.4 5 Sudeste 12 Sudeste 0 -- -- 71
2017-07-22 10:00:00 25.6 4 Este 14 Este 0 -- -- 75
2017-07-22 09:00:00 24.2 2 Este 13 Este 0 -- -- 80
2017-07-22 08:00:00 22.2 5 Nordeste 18 Noroeste 0 -- -- 83
2017-07-22 07:00:00 21.9 9 Noroeste 18 Noroeste 0 -- -- 82
2017-07-22 06:00:00 21.9 7 Noroeste 11 Noroeste 0 -- -- 82
2017-07-22 05:00:00 22.5 4 Sur 8 Sudoeste 0 -- -- 81
2017-07-22 04:00:00 22.7 2 Sur 29 Oeste 0 -- -- 81
2017-07-22 03:00:00 22.9 18 Oeste 33 Noroeste 0 -- -- 81
2017-07-22 02:00:00 23 23 Oeste 33 Oeste 0 -- -- 80
2017-07-22 01:00:00 23 12 Oeste 22 Sudoeste 0 -- -- 79
2017-07-22 00:00:00 23.2 6 Sur 14 Sudeste 0 -- -- 78